createdAt,value
2016-06-05T00:00:04.633Z,18.57
2016-06-05T00:00:14.633Z,18.63
2016-06-05T00:00:24.649Z,18.6
2016-06-05T00:00:34.649Z,18.66
2016-06-05T00:00:44.664Z,18.58
2016-06-05T00:00:54.667Z,18.63
2016-06-05T00:01:04.667Z,18.63
2016-06-05T00:01:14.667Z,18.57
2016-06-05T00:01:24.683Z,18.65
2016-06-05T00:01:34.683Z,18.58
2016-06-05T00:01:44.698Z,18.65
2016-06-05T00:01:54.701Z,18.63
2016-06-05T00:02:04.701Z,18.57
2016-06-05T00:02:14.701Z,18.63
2016-06-05T00:02:24.717Z,18.5
2016-06-05T00:02:34.576Z,18.5
2016-06-05T00:02:44.733Z,18.66
2016-06-05T00:02:54.735Z,18.57
2016-06-05T00:03:04.735Z,18.58
2016-06-05T00:03:14.750Z,18.63
2016-06-05T00:03:24.750Z,18.48
2016-06-05T00:03:34.750Z,18.55
2016-06-05T00:03:44.766Z,18.52
2016-06-05T00:03:54.769Z,18.54
2016-06-05T00:04:04.769Z,18.63
2016-06-05T00:04:14.863Z,18.58
2016-06-05T00:04:24.800Z,18.57
2016-06-05T00:04:34.785Z,18.63
2016-06-05T00:04:44.863Z,18.62
2016-06-05T00:04:54.803Z,18.57
2016-06-05T00:05:04.959Z,18.57
2016-06-05T00:05:14.928Z,18.63
2016-06-05T00:05:25.147Z,18.6
2016-06-05T00:05:35.038Z,18.54
2016-06-05T00:05:44.834Z,18.52
2016-06-05T00:05:54.994Z,18.65
2016-06-05T00:06:04.853Z,18.6
2016-06-05T00:06:14.853Z,18.57
2016-06-05T00:06:24.853Z,18.63
2016-06-05T00:06:34.884Z,18.62
2016-06-05T00:06:44.869Z,18.62
2016-06-05T00:06:54.871Z,18.6
2016-06-05T00:07:04.886Z,18.52
2016-06-05T00:07:14.886Z,18.5
2016-06-05T00:07:24.886Z,18.47
2016-06-05T00:07:34.886Z,18.62
2016-06-05T00:07:44.902Z,18.48
2016-06-05T00:07:54.904Z,18.45
2016-06-05T00:08:04.920Z,18.62
2016-06-05T00:08:14.920Z,18.6
2016-06-05T00:08:24.920Z,18.45
2016-06-05T00:08:34.920Z,18.47
2016-06-05T00:08:44.935Z,18.44
2016-06-05T00:08:54.939Z,18.54
2016-06-05T00:09:04.955Z,18.48
2016-06-05T00:09:14.955Z,18.48
2016-06-05T00:09:24.955Z,18.54
2016-06-05T00:09:34.970Z,18.45
2016-06-05T00:09:44.970Z,18.47
2016-06-05T00:09:54.972Z,18.47
2016-06-05T00:10:04.988Z,18.44
2016-06-05T00:10:14.988Z,18.47
2016-06-05T00:10:24.988Z,18.47
2016-06-05T00:10:35.004Z,18.48
2016-06-05T00:10:45.004Z,18.47
2016-06-05T00:10:55.007Z,18.44
2016-06-05T00:11:05.022Z,18.47
2016-06-05T00:11:15.022Z,18.5
2016-06-05T00:11:25.038Z,18.47
2016-06-05T00:11:35.038Z,18.52
2016-06-05T00:11:45.054Z,18.48
2016-06-05T00:11:55.041Z,18.47
2016-06-05T00:12:05.057Z,18.44
2016-06-05T00:12:15.057Z,18.42
2016-06-05T00:12:25.385Z,18.47
2016-06-05T00:12:35.119Z,18.44
2016-06-05T00:12:45.088Z,18.51
2016-06-05T00:12:55.091Z,18.5
2016-06-05T00:13:05.091Z,18.5
2016-06-05T00:13:15.091Z,18.48
2016-06-05T00:13:25.731Z,18.54
2016-06-05T00:13:35.216Z,18.45
2016-06-05T00:13:45.106Z,18.51
2016-06-05T00:13:55.124Z,18.42
2016-06-05T00:14:05.124Z,18.5
2016-06-05T00:14:15.124Z,18.42
2016-06-05T00:14:25.124Z,18.42
2016-06-05T00:14:35.140Z,18.42
2016-06-05T00:14:45.140Z,18.39
2016-06-05T00:14:55.142Z,18.44
2016-06-05T00:15:05.157Z,18.39
2016-06-05T00:15:15.157Z,18.45
2016-06-05T00:15:25.173Z,18.42
2016-06-05T00:15:35.189Z,18.42
2016-06-05T00:15:45.173Z,18.37
2016-06-05T00:15:55.192Z,18.39
2016-06-05T00:16:05.035Z,18.44
2016-06-05T00:16:15.192Z,18.42
2016-06-05T00:16:25.207Z,18.48
2016-06-05T00:16:35.207Z,18.37
2016-06-05T00:16:45.207Z,18.48
2016-06-05T00:16:55.226Z,18.39
2016-06-05T00:17:05.226Z,18.44
2016-06-05T00:17:15.226Z,18.41
2016-06-05T00:17:25.241Z,18.44
2016-06-05T00:17:35.241Z,18.37
2016-06-05T00:17:45.241Z,18.41
2016-06-05T00:17:55.260Z,18.42
2016-06-05T00:18:05.260Z,18.39
2016-06-05T00:18:15.260Z,18.36
2016-06-05T00:18:25.276Z,18.36
2016-06-05T00:18:47.544Z,18.37
2016-06-05T00:18:52.154Z,18.35
2016-06-05T00:19:02.122Z,18.36
2016-06-05T00:19:12.154Z,18.33
2016-06-05T00:19:22.138Z,18.35
2016-06-05T00:19:32.169Z,18.33
2016-06-05T00:19:42.154Z,18.35
2016-06-05T00:19:53.140Z,18.36
2016-06-05T00:20:02.171Z,18.41
2016-06-05T00:20:12.171Z,18.36
2016-06-05T00:20:22.671Z,18.35
2016-06-05T00:20:32.171Z,18.3
2016-06-05T00:20:42.203Z,18.35
2016-06-05T00:20:52.206Z,18.35
2016-06-05T00:21:02.206Z,18.26
2016-06-05T00:21:12.206Z,18.37
2016-06-05T00:21:22.221Z,18.26
2016-06-05T00:21:32.221Z,18.32
2016-06-05T00:21:42.221Z,18.33
2016-06-05T00:21:52.224Z,18.37
2016-06-05T00:22:02.240Z,18.36
2016-06-05T00:22:12.240Z,18.37
2016-06-05T00:22:22.255Z,18.3
2016-06-05T00:22:32.099Z,18.35
2016-06-05T00:22:42.255Z,18.33
2016-06-05T00:22:52.273Z,18.37
2016-06-05T00:23:02.273Z,18.36
2016-06-05T00:23:12.273Z,18.3
2016-06-05T00:23:22.273Z,18.3
2016-06-05T00:23:32.289Z,18.3
2016-06-05T00:23:42.132Z,18.3
2016-06-05T00:23:52.292Z,18.35
2016-06-05T00:24:02.307Z,18.3
2016-06-05T00:24:12.307Z,18.32
2016-06-05T00:24:22.323Z,18.29
2016-06-05T00:24:32.323Z,18.29
2016-06-05T00:24:42.323Z,18.26
2016-06-05T00:24:52.326Z,18.29
2016-06-05T00:25:02.467Z,18.3
2016-06-05T00:25:12.342Z,18.32
2016-06-05T00:25:22.342Z,18.32
2016-06-05T00:25:32.357Z,18.29
2016-06-05T00:25:42.373Z,18.29
2016-06-05T00:25:52.376Z,18.29
2016-06-05T00:26:02.376Z,18.23
2016-06-05T00:26:12.501Z,18.23
2016-06-05T00:26:22.376Z,18.2
2016-06-05T00:26:32.407Z,18.23
2016-06-05T00:26:42.407Z,18.23
2016-06-05T00:26:52.409Z,18.3
2016-06-05T00:27:11.190Z,18.29
2016-06-05T00:27:21.534Z,18.21
2016-06-05T00:27:31.175Z,18.21
2016-06-05T00:27:41.175Z,18.29
2016-06-05T00:27:51.178Z,18.21
2016-06-05T00:28:01.428Z,18.21
2016-06-05T00:28:11.193Z,18.23
2016-06-05T00:28:21.209Z,18.23
2016-06-05T00:28:31.209Z,18.2
2016-06-05T00:28:41.225Z,18.29
2016-06-05T00:28:51.211Z,18.29
2016-06-05T00:29:01.227Z,18.21
2016-06-05T00:29:11.227Z,18.18
2016-06-05T00:29:21.227Z,18.26
2016-06-05T00:29:31.242Z,18.2
2016-06-05T00:29:41.242Z,18.29
2016-06-05T00:29:51.245Z,18.17
2016-06-05T00:30:01.261Z,18.25
2016-06-05T00:30:11.261Z,18.21
2016-06-05T00:30:21.276Z,18.18
2016-06-05T00:30:31.276Z,18.21
2016-06-05T00:30:41.292Z,18.21
2016-06-05T00:30:51.295Z,18.21
2016-06-05T00:31:01.295Z,18.23
2016-06-05T00:31:11.295Z,18.21
2016-06-05T00:31:21.311Z,18.21
2016-06-05T00:31:31.311Z,18.18
2016-06-05T00:31:41.311Z,18.2
2016-06-05T00:31:51.313Z,18.18
2016-06-05T00:32:01.328Z,18.14
2016-06-05T00:32:11.328Z,18.21
2016-06-05T00:32:21.328Z,18.25
2016-06-05T00:32:31.344Z,18.2
2016-06-05T00:32:41.344Z,18.1
2016-06-05T00:32:51.363Z,18.07
2016-06-05T00:33:01.378Z,18.17
2016-06-05T00:33:11.363Z,18.17
2016-06-05T00:33:21.378Z,18.07
2016-06-05T00:33:31.378Z,18.1
2016-06-05T00:33:41.394Z,18.14
2016-06-05T00:33:51.397Z,18.17
2016-06-05T00:34:01.397Z,18.14
2016-06-05T00:34:11.397Z,18.15
2016-06-05T00:34:21.412Z,18.17
2016-06-05T00:34:31.412Z,18.15
2016-06-05T00:34:41.412Z,18.18
2016-06-05T00:34:51.414Z,18.15
2016-06-05T00:35:01.430Z,18.08
2016-06-05T00:35:11.430Z,18.18
2016-06-05T00:35:21.446Z,18.07
2016-06-05T00:35:31.446Z,18.07
2016-06-05T00:35:41.446Z,18.07
2016-06-05T00:35:51.464Z,18.15
2016-06-05T00:36:01.464Z,18.14
2016-06-05T00:36:11.464Z,18.07
2016-06-05T00:36:21.480Z,18.12
2016-06-05T00:36:31.480Z,18.12
2016-06-05T00:36:41.480Z,18.11
2016-06-05T00:36:51.499Z,18.15
2016-06-05T00:37:01.499Z,18.12
2016-06-05T00:37:11.499Z,18.12
2016-06-05T00:37:21.358Z,18.15
2016-06-05T00:37:31.514Z,18.11
2016-06-05T00:37:41.514Z,18.08
2016-06-05T00:37:51.533Z,18.12
2016-06-05T00:38:01.533Z,18.14
2016-06-05T00:38:11.533Z,18.05
2016-06-05T00:38:21.548Z,18.11
2016-06-05T00:38:31.548Z,18.12
2016-06-05T00:38:41.564Z,18.12
2016-06-05T00:38:51.566Z,18.11
2016-06-05T00:39:01.566Z,18.1
2016-06-05T00:39:11.582Z,18.05
2016-06-05T00:39:21.582Z,18.11
2016-06-05T00:39:31.582Z,18.05
2016-06-05T00:39:41.582Z,18.1
2016-06-05T00:39:51.600Z,18.11
2016-06-05T00:40:01.600Z,18.12
2016-06-05T00:40:11.616Z,18.03
2016-06-05T00:40:21.616Z,18.14
2016-06-05T00:40:31.944Z,18.08
2016-06-05T00:40:41.647Z,18.14
2016-06-05T00:40:51.681Z,18.14
2016-06-05T00:41:01.635Z,18.14
2016-06-05T00:41:11.635Z,18.12
2016-06-05T00:41:21.666Z,18.11
2016-06-05T00:41:31.650Z,18.1
2016-06-05T00:41:41.666Z,18.12
2016-06-05T00:41:51.716Z,18.11
2016-06-05T00:42:01.684Z,18.1
2016-06-05T00:42:11.669Z,18.02
2016-06-05T00:42:21.700Z,18.07
2016-06-05T00:42:31.684Z,18.08
2016-06-05T00:42:41.684Z,18.15
2016-06-05T00:42:51.858Z,18.1
2016-06-05T00:43:01.702Z,18.15
2016-06-05T00:43:12.249Z,18.02
2016-06-05T00:43:21.718Z,18.08
2016-06-05T00:43:32.186Z,18.14
2016-06-05T00:43:42.202Z,18.11
2016-06-05T00:43:51.751Z,18.08
2016-06-05T00:44:01.751Z,18.15
2016-06-05T00:44:11.595Z,18.15
2016-06-05T00:44:21.751Z,18.05
2016-06-05T00:44:31.751Z,18.1
2016-06-05T00:44:41.767Z,18.07
2016-06-05T00:44:51.771Z,18.08
2016-06-05T00:45:01.771Z,18.11
2016-06-05T00:45:11.786Z,18.07
2016-06-05T00:45:21.786Z,18.05
2016-06-05T00:45:31.646Z,18.1
2016-06-05T00:45:41.802Z,18.11
2016-06-05T00:45:51.819Z,18.11
2016-06-05T00:46:01.819Z,18.07
2016-06-05T00:46:11.819Z,18.12
2016-06-05T00:46:21.819Z,18.11
2016-06-05T00:46:32.069Z,18.14
2016-06-05T00:46:51.259Z,18.1
2016-06-05T00:47:01.306Z,18.12
2016-06-05T00:47:11.243Z,18.07
2016-06-05T00:47:21.259Z,18.14
2016-06-05T00:47:31.259Z,18.15
2016-06-05T00:47:41.259Z,18.12
2016-06-05T00:47:51.278Z,18.12
2016-06-05T00:48:01.278Z,18.05
2016-06-05T00:48:11.278Z,18.08
2016-06-05T00:48:21.278Z,18.12
2016-06-05T00:48:31.293Z,18.11
2016-06-05T00:48:41.293Z,18.11
2016-06-05T00:48:51.296Z,18.14
2016-06-05T00:49:01.312Z,18.11
2016-06-05T00:49:11.312Z,18.14
2016-06-05T00:49:21.312Z,18.1
2016-06-05T00:49:31.327Z,18.1
2016-06-05T00:49:41.327Z,18.11
2016-06-05T00:49:51.330Z,18.02
2016-06-05T00:50:01.346Z,18.11
2016-06-05T00:50:11.190Z,18.12
2016-06-05T00:50:21.362Z,18.14
2016-06-05T00:50:31.362Z,18.1
2016-06-05T00:50:41.362Z,18.1
2016-06-05T00:50:51.365Z,18.14
2016-06-05T00:51:01.380Z,18.14
2016-06-05T00:51:11.380Z,18.15
2016-06-05T00:51:21.380Z,18.05
2016-06-05T00:51:31.396Z,18.11
2016-06-05T00:51:41.396Z,18.1
2016-06-05T00:51:51.398Z,18.1
2016-06-05T00:52:01.398Z,18.17
2016-06-05T00:52:11.414Z,18.11
2016-06-05T00:52:21.414Z,18.12
2016-06-05T00:52:31.429Z,18.08
2016-06-05T00:52:41.429Z,18.08
2016-06-05T00:52:51.432Z,18.11
2016-06-05T00:53:01.448Z,18.03
2016-06-05T00:53:11.448Z,18.1
2016-06-05T00:53:21.448Z,18.08
2016-06-05T00:53:31.463Z,18.15
2016-06-05T00:53:41.307Z,18.11
2016-06-05T00:53:51.466Z,18.07
2016-06-05T00:54:01.482Z,18.05
2016-06-05T00:54:11.482Z,18.05
2016-06-05T00:54:21.498Z,18.15
2016-06-05T00:54:32.170Z,18.08
2016-06-05T00:54:41.498Z,18.08
2016-06-05T00:54:51.500Z,18.03
2016-06-05T00:55:01.515Z,18.07
2016-06-05T00:55:11.515Z,18.12
2016-06-05T00:55:21.515Z,18.08
2016-06-05T00:55:31.531Z,18.15
2016-06-05T00:55:41.531Z,18.1
2016-06-05T00:55:51.534Z,18.12
2016-06-05T00:56:01.550Z,18.15
2016-06-05T00:56:11.612Z,18.11
2016-06-05T00:56:21.550Z,18.05
2016-06-05T00:56:31.565Z,18.08
2016-06-05T00:56:41.565Z,18.11
2016-06-05T00:56:51.584Z,18.15
2016-06-05T00:57:01.599Z,18.11
2016-06-05T00:57:11.599Z,18.11
2016-06-05T00:57:21.584Z,18.08
2016-06-05T00:57:31.474Z,18.15
2016-06-05T00:57:41.615Z,18.11
2016-06-05T00:57:52.118Z,18.14
2016-06-05T00:58:02.243Z,18.14
2016-06-05T00:58:12.102Z,18.02
2016-06-05T00:58:21.634Z,18
2016-06-05T00:58:31.634Z,18.14
2016-06-05T00:58:41.634Z,18.05
2016-06-05T00:59:00.573Z,18.14
2016-06-05T00:59:10.558Z,18.12
2016-06-05T00:59:20.558Z,18.12
2016-06-05T00:59:30.558Z,18.15
2016-06-05T00:59:40.573Z,18.12
2016-06-05T00:59:50.576Z,18.07
2016-06-05T01:00:00.576Z,18.08
2016-06-05T01:00:10.592Z,18.05
2016-06-05T01:00:20.592Z,18.1
2016-06-05T01:00:30.607Z,18.12
2016-06-05T01:00:40.607Z,18.08
2016-06-05T01:00:50.610Z,18.07
2016-06-05T01:01:00.626Z,18.12
2016-06-05T01:01:10.626Z,18.07
2016-06-05T01:01:20.642Z,18.03
2016-06-05T01:01:30.642Z,18.07
2016-06-05T01:01:40.642Z,18.12
2016-06-05T01:01:50.644Z,18.07
2016-06-05T01:02:00.644Z,18.1
2016-06-05T01:02:10.659Z,18.07
2016-06-05T01:02:20.675Z,18.12
2016-06-05T01:02:30.737Z,18.08
2016-06-05T01:02:40.675Z,18.08
2016-06-05T01:02:50.755Z,18.07
2016-06-05T01:03:00.552Z,18.07
2016-06-05T01:03:10.693Z,18.11
2016-06-05T01:03:20.693Z,18.1
2016-06-05T01:03:30.693Z,18.1
2016-06-05T01:03:40.708Z,18.11
2016-06-05T01:03:50.728Z,18.08
2016-06-05T01:04:00.712Z,18.17
2016-06-05T01:04:10.728Z,18.11
2016-06-05T01:04:20.728Z,18.14
2016-06-05T01:04:50.183Z,18.03
2016-06-05T01:05:00.167Z,18.1
2016-06-05T01:05:10.167Z,18.1
2016-06-05T01:05:20.167Z,18.08
2016-06-05T01:05:30.183Z,18.07
2016-06-05T01:05:40.339Z,18.02
2016-06-05T01:05:50.186Z,18
2016-06-05T01:06:00.202Z,18.05
2016-06-05T01:06:10.202Z,18.02
2016-06-05T01:06:20.217Z,18.02
2016-06-05T01:06:30.217Z,18
2016-06-05T01:06:40.233Z,17.97
2016-06-05T01:06:50.220Z,17.96
2016-06-05T01:07:00.236Z,17.99
2016-06-05T01:07:10.236Z,18.05
2016-06-05T01:07:20.251Z,17.96
2016-06-05T01:07:30.251Z,17.99
2016-06-05T01:07:40.251Z,18
2016-06-05T01:07:50.253Z,17.99
2016-06-05T01:08:00.269Z,17.99
2016-06-05T01:08:10.269Z,17.96
2016-06-05T01:08:20.300Z,17.92
2016-06-05T01:08:30.285Z,17.93
2016-06-05T01:08:40.300Z,17.9
2016-06-05T01:08:50.303Z,17.89
2016-06-05T01:09:00.303Z,17.95
2016-06-05T01:09:10.303Z,18.02
2016-06-05T01:09:20.319Z,17.93
2016-06-05T01:09:30.319Z,17.92
2016-06-05T01:09:40.319Z,17.93
2016-06-05T01:09:50.338Z,17.93
2016-06-05T01:10:00.338Z,17.96
2016-06-05T01:10:10.338Z,17.95
2016-06-05T01:10:20.353Z,17.93
2016-06-05T01:10:30.353Z,17.93
2016-06-05T01:10:40.353Z,17.89
2016-06-05T01:10:50.372Z,17.89
2016-06-05T01:11:00.372Z,17.95
2016-06-05T01:11:10.372Z,17.95
2016-06-05T01:11:20.372Z,17.95
2016-06-05T01:11:30.387Z,18
2016-06-05T01:11:40.387Z,17.89
2016-06-05T01:11:50.405Z,17.99
2016-06-05T01:12:00.405Z,17.89
2016-06-05T01:12:10.421Z,17.89
2016-06-05T01:12:20.421Z,18
2016-06-05T01:12:30.421Z,17.89
2016-06-05T01:12:40.436Z,17.9
2016-06-05T01:12:50.439Z,17.99
2016-06-05T01:13:00.439Z,17.93
2016-06-05T01:13:10.549Z,17.95
2016-06-05T01:13:20.502Z,17.86
2016-06-05T01:13:30.471Z,17.9
2016-06-05T01:13:40.721Z,17.86
2016-06-05T01:13:50.816Z,17.9
2016-06-05T01:14:00.473Z,17.82
2016-06-05T01:14:10.473Z,17.89
2016-06-05T01:14:20.488Z,17.87
2016-06-05T01:14:30.488Z,17.9
2016-06-05T01:14:40.488Z,17.81
2016-06-05T01:14:50.507Z,17.9
2016-06-05T01:15:00.522Z,17.89
2016-06-05T01:15:10.522Z,17.81
2016-06-05T01:15:20.522Z,17.86
2016-06-05T01:15:30.522Z,17.86
2016-06-05T01:15:40.522Z,17.81
2016-06-05T01:15:50.541Z,17.86
2016-06-05T01:16:00.541Z,17.86
2016-06-05T01:16:10.541Z,17.81
2016-06-05T01:16:20.775Z,17.84
2016-06-05T01:16:30.557Z,17.87
2016-06-05T01:16:40.557Z,17.86
2016-06-05T01:16:50.574Z,17.81
2016-06-05T01:17:00.590Z,17.87
2016-06-05T01:17:10.574Z,17.79
2016-06-05T01:17:20.590Z,17.81
2016-06-05T01:17:30.590Z,17.89
2016-06-05T01:17:40.590Z,17.9
2016-06-05T01:17:50.609Z,17.82
2016-06-05T01:18:00.609Z,17.84
2016-06-05T01:18:10.609Z,17.79
2016-06-05T01:18:20.624Z,17.89
2016-06-05T01:18:30.624Z,17.89
2016-06-05T01:18:40.640Z,17.89
2016-06-05T01:18:50.643Z,17.84
2016-06-05T01:19:00.643Z,17.86
2016-06-05T01:19:10.658Z,17.84
2016-06-05T01:19:20.487Z,17.82
2016-06-05T01:19:30.658Z,17.78
2016-06-05T01:19:40.658Z,17.78
2016-06-05T01:19:50.521Z,17.81
2016-06-05T01:20:00.693Z,17.82
2016-06-05T01:20:10.677Z,17.82
2016-06-05T01:20:20.693Z,17.79
2016-06-05T01:20:30.693Z,17.81
2016-06-05T01:20:40.693Z,17.79
2016-06-05T01:20:50.555Z,17.78
2016-06-05T01:21:00.711Z,17.77
2016-06-05T01:21:10.711Z,17.77
2016-06-05T01:21:20.727Z,17.72
2016-06-05T01:21:30.727Z,17.79
2016-06-05T01:21:40.727Z,17.66
2016-06-05T01:21:50.745Z,17.77
2016-06-05T01:22:00.745Z,17.74
2016-06-05T01:22:10.745Z,17.75
2016-06-05T01:22:20.760Z,17.71
2016-06-05T01:22:30.760Z,17.77
2016-06-05T01:22:40.776Z,17.71
2016-06-05T01:22:50.779Z,17.72
2016-06-05T01:23:00.779Z,17.68
2016-06-05T01:23:10.779Z,17.71
2016-06-05T01:23:20.794Z,17.66
2016-06-05T01:23:30.794Z,17.75
2016-06-05T01:23:40.794Z,17.68
2016-06-05T01:23:50.812Z,17.66
2016-06-05T01:24:00.812Z,17.68
2016-06-05T01:24:10.828Z,17.72
2016-06-05T01:24:20.828Z,17.66
2016-06-05T01:24:30.671Z,17.77
2016-06-05T01:24:40.843Z,17.68
2016-06-05T01:24:50.846Z,17.68
2016-06-05T01:25:00.862Z,17.7
2016-06-05T01:25:10.862Z,17.72
2016-06-05T01:25:20.862Z,17.68
2016-06-05T01:25:30.862Z,17.66
2016-06-05T01:25:40.862Z,17.7
2016-06-05T01:25:50.881Z,17.68
2016-06-05T01:26:00.881Z,17.63
2016-06-05T01:26:10.881Z,17.63
2016-06-05T01:26:20.896Z,17.68
2016-06-05T01:26:30.896Z,17.62
2016-06-05T01:26:40.896Z,17.74
2016-06-05T01:26:50.914Z,17.68
2016-06-05T01:27:00.914Z,17.68
2016-06-05T01:27:10.929Z,17.64
2016-06-05T01:27:20.929Z,17.66
2016-06-05T01:27:30.929Z,17.68
2016-06-05T01:27:40.945Z,17.66
2016-06-05T01:27:50.948Z,17.64
2016-06-05T01:28:00.964Z,17.66
2016-06-05T01:28:10.948Z,17.7
2016-06-05T01:28:20.979Z,17.62
2016-06-05T01:28:30.823Z,17.7
2016-06-05T01:28:40.964Z,17.59
2016-06-05T01:28:50.982Z,17.59
2016-06-05T01:29:00.982Z,17.63
2016-06-05T01:29:10.982Z,17.64
2016-06-05T01:29:20.998Z,17.56
2016-06-05T01:29:31.014Z,17.66
2016-06-05T01:29:41.014Z,17.63
2016-06-05T01:29:51.016Z,17.63
2016-06-05T01:30:01.016Z,17.59
2016-06-05T01:30:11.016Z,17.63
2016-06-05T01:30:21.047Z,17.58
2016-06-05T01:30:31.047Z,17.59
2016-06-05T01:30:41.047Z,17.64
2016-06-05T01:30:51.051Z,17.58
2016-06-05T01:31:01.051Z,17.63
2016-06-05T01:31:11.066Z,17.58
2016-06-05T01:31:21.066Z,17.64
2016-06-05T01:31:31.066Z,17.7
2016-06-05T01:31:41.082Z,17.68
2016-06-05T01:31:51.084Z,17.55
2016-06-05T01:32:01.084Z,17.63
2016-06-05T01:32:11.084Z,17.64
2016-06-05T01:32:21.100Z,17.63
2016-06-05T01:32:31.100Z,17.63
2016-06-05T01:32:41.115Z,17.63
2016-06-05T01:32:51.117Z,17.59
2016-06-05T01:33:01.117Z,17.62
2016-06-05T01:33:11.117Z,17.55
2016-06-05T01:33:21.133Z,17.58
2016-06-05T01:33:31.133Z,17.59
2016-06-05T01:33:41.149Z,17.64
2016-06-05T01:33:51.152Z,17.62
2016-06-05T01:34:01.152Z,17.54
2016-06-05T01:34:11.167Z,17.68
2016-06-05T01:34:21.167Z,17.59
2016-06-05T01:34:31.167Z,17.62
2016-06-05T01:34:41.011Z,17.55
2016-06-05T01:34:51.186Z,17.55
2016-06-05T01:35:01.186Z,17.54
2016-06-05T01:35:11.201Z,17.59
2016-06-05T01:35:21.201Z,17.54
2016-06-05T01:35:31.201Z,17.62
2016-06-05T01:35:41.201Z,17.52
2016-06-05T01:35:51.220Z,17.52
2016-06-05T01:36:01.220Z,17.54
2016-06-05T01:36:11.236Z,17.54
2016-06-05T01:36:21.236Z,17.51
2016-06-05T01:36:31.236Z,17.56
2016-06-05T01:36:41.251Z,17.62
2016-06-05T01:36:51.254Z,17.54
2016-06-05T01:37:01.254Z,17.52
2016-06-05T01:37:11.254Z,17.56
2016-06-05T01:37:21.270Z,17.56
2016-06-05T01:37:31.270Z,17.51
2016-06-05T01:37:41.286Z,17.56
2016-06-05T01:37:51.288Z,17.54
2016-06-05T01:38:01.288Z,17.55
2016-06-05T01:38:11.288Z,17.54
2016-06-05T01:38:21.303Z,17.62
2016-06-05T01:38:31.303Z,17.52
2016-06-05T01:38:41.319Z,17.51
2016-06-05T01:38:51.336Z,17.48
2016-06-05T01:39:01.336Z,17.52
2016-06-05T01:39:11.321Z,17.55
2016-06-05T01:39:21.336Z,17.58
2016-06-05T01:39:31.336Z,17.49
2016-06-05T01:39:41.352Z,17.48
2016-06-05T01:39:51.356Z,17.56
2016-06-05T01:40:01.200Z,17.58
2016-06-05T01:40:11.372Z,17.48
2016-06-05T01:40:21.372Z,17.49
2016-06-05T01:40:31.372Z,17.43
2016-06-05T01:40:41.372Z,17.48
2016-06-05T01:40:51.389Z,17.48
2016-06-05T01:41:01.389Z,17.51
2016-06-05T01:41:11.389Z,17.49
2016-06-05T01:41:21.421Z,17.49
2016-06-05T01:41:31.405Z,17.46
2016-06-05T01:41:41.405Z,17.46
2016-06-05T01:41:51.424Z,17.46
2016-06-05T01:42:01.439Z,17.49
2016-06-05T01:42:11.455Z,17.51
2016-06-05T01:42:21.439Z,17.52
2016-06-05T01:42:31.439Z,17.48
2016-06-05T01:42:41.502Z,17.48
2016-06-05T01:42:51.458Z,17.48
2016-06-05T01:43:01.458Z,17.49
2016-06-05T01:43:11.317Z,17.52
2016-06-05T01:43:21.739Z,17.51
2016-06-05T01:43:32.020Z,17.49
2016-06-05T01:43:41.489Z,17.51
2016-06-05T01:43:51.492Z,17.52
2016-06-05T01:44:01.492Z,17.48
2016-06-05T01:44:11.492Z,17.51
2016-06-05T01:44:21.508Z,17.46
2016-06-05T01:44:31.508Z,17.46
2016-06-05T01:44:41.523Z,17.54
2016-06-05T01:44:51.525Z,17.44
2016-06-05T01:45:01.525Z,17.46
2016-06-05T01:45:11.541Z,17.52
2016-06-05T01:45:21.541Z,17.4
2016-06-05T01:45:31.541Z,17.43
2016-06-05T01:45:41.557Z,17.4
2016-06-05T01:45:51.559Z,17.46
2016-06-05T01:46:01.559Z,17.4
2016-06-05T01:46:11.574Z,17.51
2016-06-05T01:46:21.574Z,17.48
2016-06-05T01:46:31.574Z,17.46
2016-06-05T01:46:41.590Z,17.41
2016-06-05T01:46:51.593Z,17.43
2016-06-05T01:47:01.593Z,17.33
2016-06-05T01:47:11.608Z,17.38
2016-06-05T01:47:21.608Z,17.37
2016-06-05T01:47:31.608Z,17.36
2016-06-05T01:47:41.624Z,17.37
2016-06-05T01:47:51.627Z,17.36
2016-06-05T01:48:01.627Z,17.43
2016-06-05T01:48:11.643Z,17.43
2016-06-05T01:48:21.643Z,17.36
2016-06-05T01:48:31.643Z,17.38
2016-06-05T01:48:41.643Z,17.33
2016-06-05T01:48:51.660Z,17.36
2016-06-05T01:49:01.660Z,17.38
2016-06-05T01:49:11.676Z,17.28
2016-06-05T01:49:21.676Z,17.33
2016-06-05T01:49:31.676Z,17.36
2016-06-05T01:49:41.676Z,17.31
2016-06-05T01:49:51.696Z,17.37
2016-06-05T01:50:01.711Z,17.34
2016-06-05T01:50:11.696Z,17.38
2016-06-05T01:50:21.711Z,17.38
2016-06-05T01:50:31.711Z,17.37
2016-06-05T01:50:41.727Z,17.4
2016-06-05T01:50:51.729Z,17.36
2016-06-05T01:51:01.729Z,17.3
2016-06-05T01:51:11.729Z,17.26
2016-06-05T01:51:21.744Z,17.38
2016-06-05T01:51:31.744Z,17.34
2016-06-05T01:51:41.760Z,17.3
2016-06-05T01:51:51.763Z,17.26
2016-06-05T01:52:01.763Z,17.33
2016-06-05T01:52:11.763Z,17.38
2016-06-05T01:52:21.779Z,17.33
2016-06-05T01:52:31.779Z,17.33
2016-06-05T01:52:41.779Z,17.28
2016-06-05T01:52:51.796Z,17.36
2016-06-05T01:53:01.796Z,17.3
2016-06-05T01:53:11.796Z,17.26
2016-06-05T01:53:21.812Z,17.26
2016-06-05T01:53:31.812Z,17.3
2016-06-05T01:53:41.812Z,17.25
2016-06-05T01:53:51.831Z,17.31
2016-06-05T01:54:01.846Z,17.25
2016-06-05T01:54:11.831Z,17.31
2016-06-05T01:54:21.846Z,17.23
2016-06-05T01:54:31.846Z,17.28
2016-06-05T01:54:41.862Z,17.28
2016-06-05T01:54:51.865Z,17.28
2016-06-05T01:55:01.865Z,17.31
2016-06-05T01:55:11.880Z,17.3
2016-06-05T01:55:21.880Z,17.31
2016-06-05T01:55:31.880Z,17.16
2016-06-05T01:55:41.880Z,17.31
2016-06-05T01:55:51.899Z,17.25
2016-06-05T01:56:01.899Z,17.23
2016-06-05T01:56:11.899Z,17.21
2016-06-05T01:56:21.915Z,17.28
2016-06-05T01:56:31.915Z,17.18
2016-06-05T01:56:41.915Z,17.18
2016-06-05T01:56:51.932Z,17.22
2016-06-05T01:57:01.932Z,17.15
2016-06-05T01:57:11.948Z,17.25
2016-06-05T01:57:21.948Z,17.14
2016-06-05T01:57:32.448Z,17.15
2016-06-05T01:57:41.807Z,17.23
2016-06-05T01:57:51.981Z,17.16
2016-06-05T01:58:01.966Z,17.19
2016-06-05T01:58:12.856Z,17.16
2016-06-05T01:58:22.403Z,17.19
2016-06-05T01:58:31.997Z,17.21
2016-06-05T01:58:42.450Z,17.21
2016-06-05T01:58:51.872Z,17.23
2016-06-05T01:59:02.000Z,17.23
2016-06-05T01:59:11.844Z,17.19
2016-06-05T01:59:22.015Z,17.23
2016-06-05T01:59:32.031Z,17.21
2016-06-05T01:59:42.031Z,17.21
2016-06-05T01:59:52.031Z,17.22
2016-06-05T02:00:02.035Z,17.16
2016-06-05T02:00:12.051Z,17.28
2016-06-05T02:00:22.051Z,17.19
2016-06-05T02:00:32.051Z,17.18
2016-06-05T02:00:42.066Z,17.25
2016-06-05T02:00:52.066Z,17.16
2016-06-05T02:01:02.084Z,17.19
2016-06-05T02:01:12.084Z,17.16
2016-06-05T02:01:22.084Z,17.21
2016-06-05T02:01:32.084Z,17.18
2016-06-05T02:01:42.115Z,17.22
2016-06-05T02:01:52.100Z,17.22
2016-06-05T02:02:02.103Z,17.18
2016-06-05T02:02:12.103Z,17.19
2016-06-05T02:02:22.118Z,17.19
2016-06-05T02:02:32.134Z,17.19
2016-06-05T02:02:42.134Z,17.21
2016-06-05T02:02:52.134Z,17.21
2016-06-05T02:03:02.137Z,17.22
2016-06-05T02:03:12.152Z,17.21
2016-06-05T02:03:22.152Z,17.18
2016-06-05T02:03:32.168Z,17.18
2016-06-05T02:03:42.168Z,17.16
2016-06-05T02:03:52.168Z,17.07
2016-06-05T02:04:02.170Z,17.22
2016-06-05T02:04:12.170Z,17.11
2016-06-05T02:04:22.186Z,17.16
2016-06-05T02:04:32.186Z,17.18
2016-06-05T02:04:42.186Z,17.22
2016-06-05T02:04:52.045Z,17.19
2016-06-05T02:05:02.204Z,17.06
2016-06-05T02:05:12.204Z,17.16
2016-06-05T02:05:22.220Z,17.18
2016-06-05T02:05:32.220Z,17.18
2016-06-05T02:05:42.220Z,17.18
2016-06-05T02:05:52.251Z,17.06
2016-06-05T02:06:02.253Z,17.04
2016-06-05T02:06:12.238Z,17.23
2016-06-05T02:06:22.253Z,17.21
2016-06-05T02:06:32.253Z,17.19
2016-06-05T02:06:42.253Z,17.12
2016-06-05T02:06:52.269Z,17.14
2016-06-05T02:07:02.272Z,17.16
2016-06-05T02:07:12.287Z,17.22
2016-06-05T02:07:22.287Z,17.23
2016-06-05T02:07:32.287Z,17.18
2016-06-05T02:07:42.303Z,17.23
2016-06-05T02:07:52.303Z,17.12
2016-06-05T02:08:02.306Z,17.12
2016-06-05T02:08:12.306Z,17.12
2016-06-05T02:08:22.322Z,17.12
2016-06-05T02:08:32.322Z,17.19
2016-06-05T02:08:42.337Z,17.16
2016-06-05T02:08:52.337Z,17.12
2016-06-05T02:09:02.355Z,17.22
2016-06-05T02:09:12.339Z,17.18
2016-06-05T02:09:22.355Z,17.15
2016-06-05T02:09:32.355Z,17.12
2016-06-05T02:09:42.355Z,17.22
2016-06-05T02:09:52.371Z,17.03
2016-06-05T02:10:02.374Z,17.14
2016-06-05T02:10:12.389Z,17.07